Terminal Aerodrome Forecast
Issued by NWS Duluth, MN

Home | Current Version | Previous Version | Text Only | Print | Product List | Glossary On
Versions: 1 2 3 4 5 6 7 8 9 10 11 12 13 14 15 16 17 18 19 20 21 22 23 24 25 26 27 28 29 30 31 32 33 34
000
FTUS43 KDLH 041121
TAFINL
TAF
KINL 041121Z 0412/0512 VRB03KT 5SM FU FEW050
     FM041700 17008KT P6SM SCT050
     FM050200 15006KT P6SM SCT040
     FM050700 18007KT P6SM SCT030 BKN120 WS020/21040KT
      TEMPO 0510/0512 4SM -SHRA BR SCT020 OVC070=

USA.gov is the U.S. government's official web portal to all federal, state and local government web resources and services.